Time;durP1;ratioP1;P1;durP2;ratioP2;P2;SDS_P1;SDS_P2;PMS_P1;PMS_P2;Temp;Humidity;BMP_temperature;BMP_pressure;BME280_temperature;BME280_humidity;BME280_pressure;Samples;Min_cycle;Max_cycle;Signal;HPM_P1;HPM_P2
2024/01/19 00:03:51;;;;;;;0.80;0.50;;;18.80;37.60;;;;;;8331618;28;20038;-48
2024/01/19 00:07:51;;;;;;;0.43;0.40;;;18.60;38.30;;;;;;8331622;28;20037;-48
2024/01/19 00:11:52;;;;;;;1.02;0.50;;;18.70;38.00;;;;;;8331406;28;20053;-48
2024/01/19 00:15:55;;;;;;;0.40;0.40;;;18.80;37.60;;;;;;8329925;28;20030;-48
2024/01/19 00:19:55;;;;;;;0.73;0.40;;;18.80;37.30;;;;;;8331133;28;20037;-47
2024/01/19 00:23:56;;;;;;;0.40;0.40;;;18.90;37.20;;;;;;8331321;28;20067;-47
2024/01/19 00:27:57;;;;;;;0.50;0.40;;;18.90;37.00;;;;;;8330802;28;20038;-48
2024/01/19 00:31:57;;;;;;;0.50;0.50;;;18.90;36.90;;;;;;8330646;28;20387;-49
2024/01/19 00:35:58;;;;;;;0.45;0.45;;;18.90;36.80;;;;;;8330688;28;20048;-49
2024/01/19 00:39:59;;;;;;;0.43;0.43;;;18.90;36.70;;;;;;8330587;28;20044;-48
2024/01/19 00:43:59;;;;;;;0.43;0.43;;;19.00;36.60;;;;;;8330279;28;20204;-48
2024/01/19 00:48:00;;;;;;;0.50;0.50;;;18.90;36.60;;;;;;8330437;28;20605;-48
2024/01/19 00:52:01;;;;;;;0.63;0.63;;;18.80;37.60;;;;;;8330181;28;20045;-47
2024/01/19 00:56:03;;;;;;;0.52;0.52;;;18.60;38.20;;;;;;8330099;28;20034;-51
2024/01/19 01:00:04;;;;;;;0.45;0.45;;;18.70;37.90;;;;;;8329937;28;20034;-48
2024/01/19 01:04:05;;;;;;;0.77;0.60;;;18.80;37.50;;;;;;8329981;28;20025;-49
2024/01/19 01:08:06;;;;;;;0.50;0.50;;;18.80;37.30;;;;;;8329566;28;20107;-49
2024/01/19 01:12:07;;;;;;;0.40;0.40;;;18.80;37.10;;;;;;8311912;28;20087;-47
2024/01/19 01:16:08;;;;;;;0.50;0.50;;;18.90;37.00;;;;;;8329325;28;20284;-48
2024/01/19 01:20:11;;;;;;;0.60;0.50;;;18.90;36.90;;;;;;8329374;28;20553;-48
2024/01/19 01:24:11;;;;;;;0.50;0.30;;;18.90;36.80;;;;;;8329144;28;20454;-47
2024/01/19 01:28:12;;;;;;;0.53;0.50;;;18.90;36.70;;;;;;8329019;28;20551;-47
2024/01/19 01:32:13;;;;;;;0.82;0.50;;;18.90;36.60;;;;;;8329050;28;20295;-48
2024/01/19 01:36:14;;;;;;;0.80;0.50;;;18.90;36.70;;;;;;8329016;28;20033;-49
2024/01/19 01:40:14;;;;;;;0.60;0.52;;;18.70;37.80;;;;;;8328558;28;20037;-48
2024/01/19 01:44:15;;;;;;;0.93;0.40;;;18.60;38.30;;;;;;8328574;28;20038;-48
2024/01/19 01:48:17;;;;;;;0.40;0.40;;;18.70;37.80;;;;;;8328666;28;20037;-48
2024/01/19 01:52:18;;;;;;;0.68;0.60;;;18.70;37.50;;;;;;8328396;28;20038;-49
2024/01/19 01:56:19;;;;;;;0.43;0.40;;;18.80;37.30;;;;;;8327769;28;20084;-48
2024/01/19 02:00:20;;;;;;;1.05;0.65;;;18.80;37.10;;;;;;8328020;28;20037;-49
2024/01/19 02:04:21;;;;;;;;;;;18.80;37.00;;;;;;8328599;28;20030;-48
2024/01/19 02:08:22;;;;;;;0.60;0.50;;;18.80;36.80;;;;;;8327809;28;19962;-48
2024/01/19 02:12:23;;;;;;;0.35;0.35;;;18.90;36.80;;;;;;8326402;28;20042;-48
2024/01/19 02:16:24;;;;;;;0.43;0.43;;;18.90;36.70;;;;;;8328185;28;20036;-48
2024/01/19 02:20:24;;;;;;;0.40;0.40;;;18.90;36.60;;;;;;8327877;28;20043;-47
2024/01/19 02:24:26;;;;;;;1.07;0.60;;;18.90;36.70;;;;;;8326183;28;20036;-48
2024/01/19 02:28:27;;;;;;;0.60;0.50;;;18.60;37.80;;;;;;8327394;28;21033;-47
2024/01/19 02:32:28;;;;;;;0.70;0.50;;;18.50;38.10;;;;;;8327428;28;20107;-48
2024/01/19 02:36:28;;;;;;;0.45;0.45;;;18.60;38.30;;;;;;8327118;28;20275;-47
2024/01/19 02:40:29;;;;;;;0.57;0.50;;;18.70;37.50;;;;;;8325644;28;20034;-47
2024/01/19 02:44:30;;;;;;;0.40;0.40;;;18.80;37.30;;;;;;8327204;28;20030;-48
2024/01/19 02:48:30;;;;;;;0.73;0.40;;;18.80;37.10;;;;;;8327020;28;20029;-47
2024/01/19 02:52:31;;;;;;;0.40;0.40;;;18.80;36.90;;;;;;8326879;28;20048;-48
2024/01/19 02:56:32;;;;;;;1.23;0.50;;;18.80;36.80;;;;;;8325566;28;20033;-47
2024/01/19 03:00:32;;;;;;;0.75;0.60;;;18.80;36.70;;;;;;8326850;28;20060;-48
2024/01/19 03:04:33;;;;;;;0.70;0.70;;;18.80;36.70;;;;;;8326810;28;20026;-48
2024/01/19 03:08:34;;;;;;;0.70;0.50;;;18.90;36.60;;;;;;8329410;28;20056;-49
2024/01/19 03:12:34;;;;;;;0.77;0.63;;;18.80;36.80;;;;;;8333244;28;20813;-47
2024/01/19 03:16:41;;;;;;;1.00;0.52;;;18.60;37.80;;;;;;8333471;28;20029;-48
2024/01/19 03:20:41;;;;;;;0.70;0.70;;;18.50;38.00;;;;;;8333229;28;20048;-48
2024/01/19 03:24:42;;;;;;;0.47;0.47;;;18.60;37.70;;;;;;8333068;28;20045;-48
2024/01/19 03:28:43;;;;;;;0.60;0.60;;;18.60;37.40;;;;;;8332915;28;20288;-47
2024/01/19 03:32:43;;;;;;;0.63;0.45;;;18.70;37.20;;;;;;8332710;28;20029;-47
2024/01/19 03:36:44;;;;;;;0.50;0.50;;;18.70;37.00;;;;;;8332696;28;20380;-47
2024/01/19 03:40:46;;;;;;;0.50;0.50;;;18.80;36.90;;;;;;8332516;28;20541;-47
2024/01/19 03:44:46;;;;;;;0.77;0.60;;;18.80;36.80;;;;;;8332370;28;20399;-45
2024/01/19 03:48:47;;;;;;;0.50;0.50;;;18.80;36.70;;;;;;8332136;28;20253;-45
2024/01/19 03:52:48;;;;;;;0.60;0.60;;;18.80;36.60;;;;;;8332090;28;20033;-46
2024/01/19 03:56:49;;;;;;;0.80;0.50;;;18.80;36.50;;;;;;8332365;28;20033;-45
2024/01/19 04:00:49;;;;;;;0.43;0.43;;;18.80;36.90;;;;;;8331866;28;20033;-46
2024/01/19 04:04:50;;;;;;;0.50;0.50;;;18.60;37.90;;;;;;8331722;28;20034;-46
2024/01/19 04:08:51;;;;;;;0.60;0.60;;;18.50;37.90;;;;;;8331579;28;20455;-46
2024/01/19 04:12:51;;;;;;;0.60;0.60;;;18.60;37.60;;;;;;8331749;28;20037;-47
2024/01/19 04:16:52;;;;;;;1.92;0.80;;;18.70;37.30;;;;;;8331200;28;20392;-46
2024/01/19 04:20:53;;;;;;;0.60;0.60;;;18.70;37.10;;;;;;8330923;28;20733;-46
2024/01/19 04:24:53;;;;;;;0.73;0.50;;;18.70;37.00;;;;;;8331162;28;20038;-46
2024/01/19 04:28:55;;;;;;;0.50;0.50;;;18.80;36.90;;;;;;8330874;28;20048;-47
2024/01/19 04:32:55;;;;;;;1.48;0.80;;;18.80;36.70;;;;;;8331161;28;20033;-47
2024/01/19 04:36:56;;;;;;;0.60;0.60;;;18.80;36.60;;;;;;8330631;28;20113;-47
2024/01/19 04:40:57;;;;;;;0.80;0.80;;;18.80;36.50;;;;;;8330767;28;20856;-47
2024/01/19 04:44:58;;;;;;;0.70;0.57;;;18.80;36.50;;;;;;8330459;28;20033;-47
2024/01/19 04:48:58;;;;;;;0.50;0.50;;;18.70;36.80;;;;;;8330317;28;20309;-46
2024/01/19 04:52:59;;;;;;;0.40;0.40;;;18.50;37.80;;;;;;8330451;28;20033;-46
2024/01/19 04:57:00;;;;;;;1.55;0.50;;;18.50;37.90;;;;;;8328765;28;20029;-45
2024/01/19 05:01:01;;;;;;;0.50;0.50;;;18.60;37.50;;;;;;8329769;28;20048;-46
2024/01/19 05:05:02;;;;;;;0.43;0.40;;;18.60;37.30;;;;;;8330002;28;20403;-44
2024/01/19 05:09:03;;;;;;;1.02;0.63;;;18.60;37.10;;;;;;8329394;28;20064;-45
2024/01/19 05:13:04;;;;;;;0.68;0.57;;;18.70;36.90;;;;;;8328813;28;20502;-46
2024/01/19 05:17:04;;;;;;;0.40;0.40;;;18.70;36.70;;;;;;8329606;28;20037;-46
2024/01/19 05:21:06;;;;;;;0.80;0.57;;;18.80;36.60;;;;;;8328044;28;20116;-47
2024/01/19 05:25:07;;;;;;;1.20;0.90;;;18.90;36.40;;;;;;8329244;28;20294;-46
2024/01/19 05:29:08;;;;;;;0.95;0.63;;;18.90;36.30;;;;;;8329139;28;20041;-46
2024/01/19 05:33:09;;;;;;;0.53;0.53;;;19.00;36.20;;;;;;8328358;28;20041;-46
2024/01/19 05:37:10;;;;;;;1.95;0.68;;;18.90;36.70;;;;;;8328792;28;20284;-47
2024/01/19 05:41:10;;;;;;;1.05;0.55;;;18.70;37.60;;;;;;8327182;28;20041;-45
2024/01/19 05:45:11;;;;;;;0.95;0.88;;;18.70;37.50;;;;;;8328528;28;20121;-46
2024/01/19 05:49:12;;;;;;;0.70;0.65;;;18.80;37.10;;;;;;8328303;28;20172;-46
2024/01/19 05:53:12;;;;;;;1.08;0.65;;;18.90;36.80;;;;;;8328663;28;20479;-49
2024/01/19 05:57:13;;;;;;;1.95;0.90;;;19.00;36.60;;;;;;8327985;28;20021;-48
2024/01/19 06:01:15;;;;;;;0.70;0.70;;;19.00;37.00;;;;;;8327966;28;20391;-47
2024/01/19 06:05:16;;;;;;;0.60;0.60;;;19.00;36.30;;;;;;8328082;28;20040;-48
2024/01/19 06:09:16;;;;;;;0.60;0.60;;;19.00;36.20;;;;;;8326544;28;20561;-47
2024/01/19 06:13:17;;;;;;;0.50;0.50;;;19.00;36.20;;;;;;8327770;28;20044;-48
2024/01/19 06:17:18;;;;;;;1.23;0.80;;;19.00;36.10;;;;;;8328103;28;20025;-47
2024/01/19 06:21:19;;;;;;;1.13;0.53;;;18.90;36.10;;;;;;8327944;28;20381;-49
2024/01/19 06:25:19;;;;;;;0.40;0.40;;;18.90;36.90;;;;;;8327238;28;20288;-48
2024/01/19 06:29:20;;;;;;;0.70;0.70;;;18.70;37.60;;;;;;8327095;28;20495;-47
2024/01/19 06:33:21;;;;;;;0.73;0.52;;;18.70;37.50;;;;;;8327465;28;20395;-49
2024/01/19 06:37:21;;;;;;;0.50;0.50;;;18.80;37.00;;;;;;8327107;28;20117;-48
2024/01/19 06:41:22;;;;;;;0.73;0.50;;;18.90;36.70;;;;;;8326636;28;20096;-49
2024/01/19 06:45:23;;;;;;;0.60;0.60;;;19.00;36.50;;;;;;8326923;28;20030;-47
2024/01/19 06:49:23;;;;;;;0.70;0.70;;;19.00;36.40;;;;;;8326681;28;20068;-48
2024/01/19 06:53:24;;;;;;;0.90;0.45;;;19.00;36.30;;;;;;8326205;28;20041;-47
2024/01/19 06:57:25;;;;;;;0.90;0.43;;;19.00;36.20;;;;;;8326719;28;20029;-49
2024/01/19 07:01:25;;;;;;;0.63;0.60;;;19.10;36.10;;;;;;8326555;28;20296;-48
2024/01/19 07:05:26;;;;;;;0.50;0.50;;;19.10;36.00;;;;;;8325361;28;20288;-48
2024/01/19 07:09:28;;;;;;;0.55;0.55;;;19.00;36.00;;;;;;8326265;28;20076;-48
2024/01/19 07:13:28;;;;;;;;;;;18.90;36.80;;;;;;8326888;28;20037;-48
2024/01/19 07:17:29;;;;;;;0.60;0.60;;;18.70;37.50;;;;;;8327006;28;19909;-51
2024/01/19 07:21:30;;;;;;;0.75;0.60;;;18.70;37.40;;;;;;8326542;28;20026;-48
2024/01/19 07:25:31;;;;;;;0.70;0.70;;;18.80;37.00;;;;;;8326304;28;20075;-48
2024/01/19 07:29:32;;;;;;;0.95;0.70;;;18.90;36.80;;;;;;8324813;28;20037;-47
2024/01/19 07:33:33;;;;;;;0.60;0.50;;;18.90;36.50;;;;;;8326241;28;20124;-50
2024/01/19 07:37:33;;;;;;;1.00;0.70;;;19.00;36.40;;;;;;8326384;28;20064;-48
2024/01/19 07:41:34;;;;;;;0.77;0.77;;;19.00;36.20;;;;;;8326220;28;20498;-48
2024/01/19 07:45:35;;;;;;;0.65;0.60;;;19.00;36.20;;;;;;8326208;28;20029;-48
2024/01/19 07:49:35;;;;;;;0.70;0.70;;;19.00;36.10;;;;;;8325914;28;20545;-48
2024/01/19 07:53:36;;;;;;;0.60;0.60;;;19.10;36.00;;;;;;8327129;28;20037;-47
2024/01/19 07:57:37;;;;;;;0.60;0.60;;;19.00;36.00;;;;;;8332136;28;20057;-47
2024/01/19 08:01:39;;;;;;;0.73;0.60;;;18.90;36.90;;;;;;8332020;28;20048;-49
2024/01/19 08:05:40;;;;;;;0.80;0.60;;;18.70;37.50;;;;;;8332138;28;20038;-47
2024/01/19 08:09:40;;;;;;;0.70;0.60;;;18.80;37.30;;;;;;8331378;28;20107;-48
2024/01/19 08:13:41;;;;;;;0.70;0.60;;;18.90;36.90;;;;;;8331713;28;20045;-46
2024/01/19 08:17:42;;;;;;;1.45;0.70;;;18.90;36.70;;;;;;8331644;28;20033;-47
2024/01/19 08:21:43;;;;;;;1.05;0.60;;;18.90;37.00;;;;;;8331369;28;20037;-46
2024/01/19 08:25:44;;;;;;;0.80;0.70;;;19.00;36.30;;;;;;8331205;28;20076;-45
2024/01/19 08:29:47;;;;;;;0.60;0.60;;;19.00;36.20;;;;;;8330993;28;20060;-47
2024/01/19 08:33:47;;;;;;;1.10;0.70;;;19.00;36.20;;;;;;8329910;28;20460;-46
2024/01/19 08:37:48;;;;;;;0.60;0.60;;;19.00;36.10;;;;;;8330912;28;20423;-47
2024/01/19 08:41:49;;;;;;;1.38;0.60;;;19.00;36.00;;;;;;8330791;28;20477;-47
2024/01/19 08:45:49;;;;;;;0.70;0.63;;;19.00;35.90;;;;;;8330699;28;20041;-45
2024/01/19 08:49:50;;;;;;;0.80;0.65;;;18.90;37.00;;;;;;8330355;28;20112;-46
2024/01/19 08:53:51;;;;;;;0.85;0.60;;;18.70;37.50;;;;;;8330295;28;20491;-46
2024/01/19 08:57:52;;;;;;;0.90;0.50;;;18.80;37.20;;;;;;8330320;28;20486;-46
2024/01/19 09:01:56;;;;;;;0.80;0.80;;;18.90;36.90;;;;;;8330080;28;20037;-46
2024/01/19 09:05:56;;;;;;;0.60;0.60;;;19.00;36.60;;;;;;8330013;28;20067;-45
2024/01/19 09:09:57;;;;;;;0.50;0.50;;;19.00;36.40;;;;;;8329647;28;20049;-46
2024/01/19 09:13:58;;;;;;;0.83;0.70;;;19.00;36.30;;;;;;8329698;28;20299;-46
2024/01/19 09:17:58;;;;;;;1.40;0.70;;;19.00;36.20;;;;;;8329991;28;20284;-46
2024/01/19 09:21:59;;;;;;;0.70;0.70;;;19.00;36.10;;;;;;8329519;28;20029;-49
2024/01/19 09:26:00;;;;;;;0.50;0.50;;;19.00;36.00;;;;;;8327951;28;20399;-47
2024/01/19 09:30:01;;;;;;;0.60;0.50;;;19.10;36.00;;;;;;8329347;28;20044;-46
2024/01/19 09:34:02;;;;;;;;;;;19.10;36.00;;;;;;8329453;28;20044;-45
2024/01/19 09:38:02;;;;;;;0.73;0.73;;;18.90;37.00;;;;;;8329207;28;19948;-46
2024/01/19 09:42:08;;;;;;;0.70;0.50;;;18.80;37.50;;;;;;8328774;28;20064;-46
2024/01/19 09:46:19;;;;;;;1.00;0.82;;;18.80;37.10;;;;;;8328651;28;20479;-46
2024/01/19 09:50:26;;;;;;;0.60;0.50;;;18.90;36.80;;;;;;8328988;28;20395;-47
2024/01/19 09:54:34;;;;;;;0.60;0.60;;;18.90;36.50;;;;;;8328275;28;20026;-46
2024/01/19 09:58:34;;;;;;;1.80;0.80;;;19.00;36.40;;;;;;8328121;28;20025;-47
2024/01/19 10:02:35;;;;;;;0.93;0.60;;;19.00;36.20;;;;;;8328216;28;20037;-46
2024/01/19 10:06:37;;;;;;;0.77;0.68;;;19.00;36.10;;;;;;8328075;28;20129;-46
2024/01/19 10:10:41;;;;;;;0.57;0.50;;;19.10;36.00;;;;;;8327625;28;20050;-47
2024/01/19 10:14:42;;;;;;;0.60;0.60;;;19.10;36.00;;;;;;8327907;28;20048;-48
2024/01/19 10:18:44;;;;;;;1.53;1.10;;;19.10;35.90;;;;;;8327254;28;20057;-47
2024/01/19 10:22:46;;;;;;;1.10;0.88;;;19.00;36.10;;;;;;8327226;28;20288;-47
2024/01/19 10:26:55;;;;;;;1.10;0.70;;;18.80;37.10;;;;;;8327514;28;20037;-46
2024/01/19 10:31:17;;;;;;;0.63;0.63;;;18.80;37.40;;;;;;8326057;28;20069;-48
2024/01/19 10:35:20;;;;;;;0.50;0.45;;;18.80;36.90;;;;;;8327328;28;20021;-48
2024/01/19 10:39:25;;;;;;;0.50;0.50;;;18.90;36.70;;;;;;8327273;28;20032;-47
2024/01/19 10:43:26;;;;;;;1.17;0.70;;;18.90;36.40;;;;;;8327140;28;20047;-48
2024/01/19 10:47:27;;;;;;;0.70;0.60;;;19.00;36.30;;;;;;8327098;28;20503;-49
2024/01/19 10:51:29;;;;;;;0.60;0.60;;;19.00;36.20;;;;;;8326679;28;20691;-48
2024/01/19 10:55:31;;;;;;;1.00;0.60;;;19.00;36.10;;;;;;8326994;28;20029;-49
2024/01/19 10:59:32;;;;;;;0.57;0.50;;;19.00;36.00;;;;;;8326775;28;20025;-47
2024/01/19 11:03:33;;;;;;;;;;;19.00;35.90;;;;;;8327073;28;20030;-49
2024/01/19 11:07:33;;;;;;;0.70;0.60;;;19.10;35.90;;;;;;8326963;28;19905;-50
2024/01/19 11:11:54;;;;;;;0.65;0.65;;;19.00;36.30;;;;;;8326377;28;20049;-47
2024/01/19 11:15:58;;;;;;;0.95;0.60;;;18.80;37.30;;;;;;8326588;28;20062;-49
2024/01/19 11:19:59;;;;;;;1.95;0.68;;;18.80;37.30;;;;;;8326457;28;20029;-49
2024/01/19 11:24:00;;;;;;;0.90;0.80;;;18.90;36.90;;;;;;8325029;28;20037;-48
2024/01/19 11:28:30;;;;;;;0.93;0.77;;;18.90;36.60;;;;;;8325860;28;20034;-49
2024/01/19 11:32:31;;;;;;;0.73;0.70;;;18.90;36.30;;;;;;8333093;28;20041;-47
2024/01/19 11:36:43;;;;;;;0.70;0.70;;;19.00;36.20;;;;;;8332592;28;20106;-48
2024/01/19 11:40:47;;;;;;;0.70;0.70;;;19.00;36.10;;;;;;8332835;28;20030;-48
2024/01/19 11:44:49;;;;;;;0.85;0.60;;;19.00;36.00;;;;;;8332462;28;20064;-47
2024/01/19 11:48:49;;;;;;;0.85;0.80;;;19.10;35.90;;;;;;8331100;28;20026;-46
2024/01/19 11:52:54;;;;;;;0.60;0.60;;;19.10;35.90;;;;;;8332314;28;20036;-46
2024/01/19 11:57:17;;;;;;;1.10;0.60;;;19.10;35.80;;;;;;8332242;28;20026;-46
2024/01/19 12:01:19;;;;;;;0.50;0.50;;;18.90;36.90;;;;;;8330928;28;20040;-47
2024/01/19 12:05:21;;;;;;;0.70;0.70;;;18.70;37.40;;;;;;8331648;28;20033;-47
2024/01/19 12:09:22;;;;;;;0.60;0.60;;;18.80;37.00;;;;;;8331263;28;20054;-46
2024/01/19 12:13:23;;;;;;;0.70;0.60;;;18.90;36.70;;;;;;8331737;28;20432;-46
2024/01/19 12:17:24;;;;;;;0.77;0.70;;;18.90;36.40;;;;;;8331342;28;20103;-46
2024/01/19 12:21:25;;;;;;;0.95;0.80;;;19.00;36.30;;;;;;8331389;28;20492;-46
2024/01/19 12:25:26;;;;;;;;;;;19.00;36.10;;;;;;8331608;28;20049;-46
2024/01/19 12:29:36;;;;;;;0.90;0.80;;;19.00;36.00;;;;;;8331005;28;19909;-46
2024/01/19 12:33:36;;;;;;;0.80;0.63;;;19.10;36.00;;;;;;8330898;28;20025;-47
2024/01/19 12:37:38;;;;;;;0.70;0.50;;;19.10;35.90;;;;;;8330861;28;20479;-46
2024/01/19 12:41:39;;;;;;;;;;;19.10;35.80;;;;;;8330405;28;20038;-46
2024/01/19 12:45:40;;;;;;;0.70;0.70;;;19.10;35.80;;;;;;8330529;28;20405;-48
2024/01/19 12:49:45;;;;;;;0.80;0.60;;;18.90;36.90;;;;;;8330416;28;20399;-47
2024/01/19 12:53:53;;;;;;;0.60;0.60;;;18.70;37.30;;;;;;8330418;28;20076;-47
2024/01/19 12:57:53;;;;;;;0.73;0.70;;;18.80;36.90;;;;;;8330125;28;20034;-49
2024/01/19 13:01:54;;;;;;;0.68;0.50;;;18.90;36.60;;;;;;8330360;28;20562;-47
2024/01/19 13:06:01;;;;;;;1.00;0.90;;;18.90;36.40;;;;;;8330464;28;20391;-49
2024/01/19 13:10:05;;;;;;;0.75;0.70;;;19.00;36.20;;;;;;8329561;28;20061;-48
2024/01/19 13:14:06;;;;;;;0.80;0.70;;;19.00;36.10;;;;;;8330033;28;20531;-49
2024/01/19 13:18:11;;;;;;;0.73;0.70;;;19.00;36.00;;;;;;8328462;28;20035;-47
2024/01/19 13:22:13;;;;;;;0.75;0.52;;;19.00;35.90;;;;;;8329357;28;20037;-48
2024/01/19 13:26:19;;;;;;;0.60;0.60;;;19.10;35.80;;;;;;8329426;28;20048;-48
2024/01/19 13:30:19;;;;;;;0.60;0.60;;;19.10;35.80;;;;;;8329907;28;20433;-47
2024/01/19 13:34:26;;;;;;;0.70;0.70;;;19.00;36.10;;;;;;8328979;28;20025;-50
2024/01/19 13:38:27;;;;;;;0.60;0.60;;;18.80;37.00;;;;;;8327993;28;20038;-49
2024/01/19 13:42:28;;;;;;;0.60;0.60;;;18.70;37.20;;;;;;8328906;28;20491;-48
2024/01/19 13:46:28;;;;;;;0.60;0.60;;;18.80;36.90;;;;;;8328526;28;20038;-48
2024/01/19 13:50:29;;;;;;;0.93;0.77;;;18.80;36.60;;;;;;8328400;28;20033;-47
2024/01/19 13:54:30;;;;;;;0.93;0.60;;;18.90;36.50;;;;;;8326598;28;20037;-47
2024/01/19 13:58:30;;;;;;;0.70;0.70;;;18.90;36.30;;;;;;8328178;28;20025;-48
2024/01/19 14:02:33;;;;;;;0.70;0.63;;;18.90;36.10;;;;;;8329084;28;20108;-48
2024/01/19 14:06:34;;;;;;;1.13;0.70;;;19.00;36.00;;;;;;8328530;28;20049;-48
2024/01/19 14:10:35;;;;;;;0.77;0.60;;;19.00;35.90;;;;;;8328014;28;20661;-48
2024/01/19 14:14:37;;;;;;;0.52;0.50;;;19.00;35.80;;;;;;8327840;28;20041;-49
2024/01/19 14:18:38;;;;;;;0.70;0.70;;;19.10;35.70;;;;;;8327901;28;20029;-48
2024/01/19 14:22:39;;;;;;;0.68;0.60;;;19.00;36.20;;;;;;8309972;28;20550;-48
2024/01/19 14:26:40;;;;;;;0.63;0.63;;;18.80;37.10;;;;;;8328073;28;20379;-48
2024/01/19 14:30:44;;;;;;;0.93;0.70;;;18.80;37.10;;;;;;8326336;28;20040;-48
2024/01/19 14:34:44;;;;;;;0.52;0.52;;;18.90;36.80;;;;;;8327389;28;20033;-47
2024/01/19 14:38:45;;;;;;;0.50;0.50;;;18.90;36.40;;;;;;8328110;28;20116;-48
2024/01/19 14:42:46;;;;;;;0.50;0.50;;;19.00;36.30;;;;;;8327237;28;20117;-48
2024/01/19 14:46:48;;;;;;;0.47;0.47;;;19.00;36.20;;;;;;8327025;28;20292;-48
2024/01/19 14:50:49;;;;;;;0.65;0.52;;;19.00;36.00;;;;;;8327035;28;20038;-49
2024/01/19 14:54:50;;;;;;;0.50;0.50;;;19.10;35.90;;;;;;8326969;28;20033;-48
2024/01/19 14:58:50;;;;;;;1.10;0.70;;;19.10;35.80;;;;;;8325602;28;20037;-48
2024/01/19 15:02:51;;;;;;;0.40;0.40;;;19.10;35.80;;;;;;8326748;28;20494;-51
2024/01/19 15:06:52;;;;;;;0.47;0.47;;;19.10;36.30;;;;;;8326787;28;20560;-49
2024/01/19 15:10:52;;;;;;;0.63;0.63;;;19.10;36.30;;;;;;8326264;28;20057;-50
2024/01/19 15:14:53;;;;;;;0.57;0.57;;;18.80;37.10;;;;;;8326686;28;20057;-47
2024/01/19 15:18:54;;;;;;;0.80;0.60;;;18.80;37.10;;;;;;8326617;28;20026;-50
2024/01/19 15:22:54;;;;;;;0.60;0.60;;;18.90;36.80;;;;;;8325192;28;20295;-47
2024/01/19 15:26:56;;;;;;;0.63;0.50;;;19.00;36.40;;;;;;8326378;28;20040;-48
2024/01/19 15:30:57;;;;;;;;;;;19.00;36.30;;;;;;8326769;28;20402;-48
2024/01/19 15:34:57;;;;;;;0.60;0.50;;;19.00;36.10;;;;;;8326360;28;19905;-47
2024/01/19 15:38:58;;;;;;;0.95;0.70;;;19.00;36.00;;;;;;8325164;28;20057;-47
2024/01/19 15:42:59;;;;;;;0.60;0.60;;;19.00;35.90;;;;;;8326294;28;20041;-47
2024/01/19 15:47:00;;;;;;;1.50;1.00;;;19.10;35.80;;;;;;8326256;28;20195;-48
2024/01/19 15:51:00;;;;;;;0.80;0.70;;;19.10;35.80;;;;;;8326049;28;20403;-49
2024/01/19 15:55:02;;;;;;;0.52;0.50;;;19.10;35.70;;;;;;8326039;28;20097;-47
2024/01/19 15:59:03;;;;;;;1.27;0.60;;;19.00;36.40;;;;;;8325899;28;20487;-48
2024/01/19 16:03:04;;;;;;;0.50;0.50;;;18.80;37.20;;;;;;8326727;28;20083;-47
2024/01/19 16:07:05;;;;;;;0.50;0.50;;;18.80;37.10;;;;;;8324600;28;20037;-48
2024/01/19 16:11:07;;;;;;;0.70;0.60;;;18.90;36.70;;;;;;8325570;28;20081;-48
2024/01/19 16:15:08;;;;;;;0.98;0.60;;;18.90;36.40;;;;;;8327405;28;20029;-48
2024/01/19 16:19:08;;;;;;;0.50;0.50;;;19.00;36.30;;;;;;8330406;28;20664;-47
2024/01/19 16:23:09;;;;;;;0.70;0.70;;;19.00;36.10;;;;;;8330353;28;20245;-49
2024/01/19 16:27:10;;;;;;;0.60;0.60;;;19.00;36.00;;;;;;8331309;28;20549;-47
2024/01/19 16:31:10;;;;;;;0.60;0.57;;;19.10;35.90;;;;;;8330880;28;20116;-47
2024/01/19 16:35:11;;;;;;;0.80;0.80;;;19.00;35.80;;;;;;8331096;28;20483;-49
2024/01/19 16:39:12;;;;;;;0.65;0.60;;;19.10;35.70;;;;;;8331083;28;20091;-49
2024/01/19 16:43:13;;;;;;;0.75;0.57;;;19.10;35.80;;;;;;8330603;28;20091;-50
2024/01/19 16:47:14;;;;;;;0.52;0.52;;;18.90;36.50;;;;;;8330690;28;20048;-49
2024/01/19 16:51:16;;;;;;;1.02;0.93;;;18.80;37.30;;;;;;8330356;28;20475;-48
2024/01/19 16:55:17;;;;;;;0.57;0.50;;;18.80;37.00;;;;;;8331301;28;20033;-47
2024/01/19 16:59:18;;;;;;;0.47;0.40;;;18.90;36.60;;;;;;8330541;28;20068;-48
2024/01/19 17:03:19;;;;;;;0.50;0.50;;;18.90;36.40;;;;;;8330268;28;20033;-49
2024/01/19 17:07:20;;;;;;;0.50;0.50;;;19.00;36.20;;;;;;8330028;28;20064;-47
2024/01/19 17:11:22;;;;;;;0.70;0.70;;;19.00;36.10;;;;;;8329797;28;20050;-49
2024/01/19 17:15:27;;;;;;;0.65;0.65;;;19.00;35.90;;;;;;8329585;28;20699;-51
2024/01/19 17:19:27;;;;;;;0.63;0.55;;;19.00;35.90;;;;;;8329766;28;20105;-47
2024/01/19 17:23:28;;;;;;;2.00;0.60;;;19.00;35.80;;;;;;8329534;28;20037;-48
2024/01/19 17:27:29;;;;;;;0.60;0.60;;;19.00;35.80;;;;;;8327906;28;20033;-48
2024/01/19 17:31:30;;;;;;;0.63;0.60;;;19.00;35.70;;;;;;8328422;28;20051;-47
2024/01/19 17:35:30;;;;;;;0.52;0.52;;;18.90;36.70;;;;;;8329022;28;20029;-47
2024/01/19 17:39:32;;;;;;;0.75;0.60;;;18.80;37.30;;;;;;8328747;28;20037;-49
2024/01/19 17:43:32;;;;;;;0.60;0.60;;;18.80;36.90;;;;;;8328900;28;20398;-49
2024/01/19 17:47:33;;;;;;;0.73;0.73;;;18.90;36.60;;;;;;8328752;28;20470;-50
2024/01/19 17:51:34;;;;;;;0.52;0.52;;;19.00;36.30;;;;;;8328523;28;20280;-48
2024/01/19 17:55:34;;;;;;;0.80;0.70;;;19.00;36.20;;;;;;8328673;28;20039;-48
2024/01/19 17:59:35;;;;;;;0.52;0.50;;;19.00;36.10;;;;;;8328099;28;20096;-48
2024/01/19 18:03:36;;;;;;;0.70;0.70;;;19.10;35.90;;;;;;8328535;28;20044;-49
2024/01/19 18:07:37;;;;;;;0.68;0.55;;;19.10;35.80;;;;;;8328261;28;20026;-48
2024/01/19 18:11:38;;;;;;;0.55;0.52;;;19.10;35.70;;;;;;8327585;28;20141;-48
2024/01/19 18:15:38;;;;;;;0.43;0.40;;;19.10;35.80;;;;;;8327821;28;20417;-48
2024/01/19 18:19:40;;;;;;;0.50;0.50;;;19.10;35.60;;;;;;8327872;28;20502;-49
2024/01/19 18:23:42;;;;;;;0.60;0.60;;;18.90;36.60;;;;;;8326562;28;20037;-48
2024/01/19 18:27:43;;;;;;;0.70;0.60;;;18.80;37.20;;;;;;8327482;28;20123;-49
2024/01/19 18:31:44;;;;;;;0.87;0.60;;;18.80;36.80;;;;;;8327335;28;20037;-48
2024/01/19 18:35:44;;;;;;;0.60;0.60;;;18.90;36.50;;;;;;8327344;28;20275;-48
2024/01/19 18:39:45;;;;;;;0.50;0.50;;;19.00;36.30;;;;;;8326669;28;20040;-48
2024/01/19 18:43:46;;;;;;;0.75;0.57;;;19.00;36.10;;;;;;8327762;28;20134;-48
2024/01/19 18:47:46;;;;;;;0.80;0.80;;;19.00;36.00;;;;;;8327252;28;20040;-48
2024/01/19 18:51:47;;;;;;;0.70;0.70;;;19.00;35.90;;;;;;8326253;28;20116;-47
2024/01/19 18:55:52;;;;;;;0.70;0.70;;;19.10;35.80;;;;;;8326856;28;20629;-47
2024/01/19 18:59:53;;;;;;;0.93;0.75;;;19.00;35.70;;;;;;8326657;28;20284;-48
2024/01/19 19:03:54;;;;;;;0.60;0.60;;;19.10;35.70;;;;;;8326703;28;20061;-47
2024/01/19 19:07:54;;;;;;;0.73;0.73;;;19.10;35.70;;;;;;8327055;28;20376;-47
2024/01/19 19:11:58;;;;;;;1.52;0.70;;;18.90;36.70;;;;;;8326385;28;20307;-50
2024/01/19 19:16:01;;;;;;;0.50;0.50;;;18.80;37.20;;;;;;8326482;28;20450;-48
2024/01/19 19:20:02;;;;;;;0.47;0.47;;;18.80;36.90;;;;;;8326502;28;20037;-49
2024/01/19 19:24:03;;;;;;;0.65;0.60;;;18.90;36.50;;;;;;8326434;28;20041;-49
2024/01/19 19:28:04;;;;;;;0.98;0.77;;;19.00;36.30;;;;;;8326322;28;20123;-49
2024/01/19 19:32:05;;;;;;;0.60;0.60;;;19.00;36.10;;;;;;8326811;28;20044;-48
2024/01/19 19:36:08;;;;;;;0.60;0.60;;;19.00;36.00;;;;;;8326362;28;20065;-51
2024/01/19 19:40:09;;;;;;;0.93;0.80;;;19.00;35.80;;;;;;8326407;28;20034;-49
2024/01/19 19:44:11;;;;;;;0.45;0.43;;;19.10;35.80;;;;;;8326140;28;20041;-48
2024/01/19 19:48:12;;;;;;;1.63;0.70;;;19.10;35.70;;;;;;8326175;28;20038;-48
2024/01/19 19:52:12;;;;;;;0.60;0.60;;;19.10;35.70;;;;;;8331701;28;20038;-48
2024/01/19 19:56:14;;;;;;;0.70;0.70;;;19.10;35.70;;;;;;8332128;28;20104;-46
2024/01/19 20:00:14;;;;;;;0.55;0.50;;;18.90;36.90;;;;;;8332235;28;20033;-46
2024/01/19 20:04:15;;;;;;;0.57;0.57;;;18.80;37.10;;;;;;8332214;28;20040;-46
2024/01/19 20:08:16;;;;;;;0.60;0.60;;;18.80;36.70;;;;;;8332551;28;20033;-45
2024/01/19 20:12:17;;;;;;;1.10;0.60;;;18.90;36.40;;;;;;8330712;28;20042;-46
2024/01/19 20:16:17;;;;;;;0.93;0.70;;;18.90;36.20;;;;;;8330554;28;20435;-46
2024/01/19 20:20:18;;;;;;;0.73;0.70;;;19.00;36.10;;;;;;8331721;28;20025;-48
2024/01/19 20:24:19;;;;;;;0.95;0.60;;;19.00;35.90;;;;;;8331736;28;20045;-49
2024/01/19 20:28:19;;;;;;;0.90;0.70;;;19.00;35.80;;;;;;8297625;28;20034;-46
2024/01/19 20:32:20;;;;;;;0.60;0.60;;;19.10;35.70;;;;;;8298538;28;20030;-46
2024/01/19 20:36:21;;;;;;;0.70;0.70;;;19.10;35.60;;;;;;8298632;28;20030;-47
2024/01/19 20:40:23;;;;;;;0.75;0.60;;;19.10;35.60;;;;;;8297133;28;20041;-47
2024/01/19 20:44:24;;;;;;;0.98;0.93;;;19.10;35.80;;;;;;8298272;28;20030;-47
2024/01/19 20:48:25;;;;;;;0.52;0.50;;;18.80;36.80;;;;;;8298295;28;20037;-45
2024/01/19 20:52:26;;;;;;;0.55;0.55;;;18.70;37.10;;;;;;8297796;28;20431;-46
2024/01/19 20:56:26;;;;;;;0.60;0.60;;;18.80;36.70;;;;;;8305108;28;20029;-48
2024/01/19 21:00:28;;;;;;;0.52;0.52;;;18.90;36.40;;;;;;8330322;28;20109;-48